Metar z połowy godziny Komunikat METAR ze strony awiacja.imgw.pl Metar G00 EPWA METAR EPWA 171130Z 24007KT 210V280 9999 FEW040TCU 27/18 Q1018 NOSIG=